This is the latest recevied weather packets stored in our database for station/object DL9GJ-6. If no packets are shown the sender has not sent any weather packets the latest 10 day(s).
| Time | Temp. | Humidity | Pressure | Rain* | Wind** | Luminosity | Snow |
|---|---|---|---|---|---|---|---|
| 1777743570 | 22.78° C | 32% | 1016.1 hPa | 0 mm | - | 36 W/m² | - |
| 1777743209 | 22.78° C | 33% | 1016.2 hPa | 0 mm | - | 41 W/m² | - |
| 1777743129 | 22.78° C | 33% | 1016.2 hPa | 0 mm | - | 41 W/m² | - |
| 1777742849 | 22.78° C | 32% | 1016.1 hPa | 0 mm | - | 46 W/m² | - |
| 1777742490 | 23.33° C | 30% | 1016.1 hPa | 0 mm | - | 52 W/m² | - |
| 1777742411 | 23.33° C | 30% | 1016.1 hPa | 0 mm | - | 52 W/m² | - |
| 1777741329 | 23.33° C | 31% | 1016.2 hPa | 0 mm | - | 66 W/m² | - |
| 1777740609 | 23.33° C | 31% | 1016.3 hPa | 0 mm | - | 81 W/m² | - |
| 1777739169 | 23.33° C | 32% | 1016.6 hPa | 0 mm | - | 87 W/m² | - |
| 1777738811 | 23.33° C | 32% | 1016.7 hPa | 0 mm | - | 84 W/m² | - |
| 1777738449 | 23.89° C | 32% | 1016.8 hPa | 0 mm | - | 86 W/m² | - |
| 1777738090 | 23.89° C | 31% | 1016.8 hPa | 0 mm | - | 92 W/m² | - |
| 1777737369 | 23.89° C | 29% | 1016.9 hPa | 0 mm | - | 106 W/m² | - |
| 1777735569 | 24.44° C | 33% | 1017.2 hPa | 0 mm | - | 139 W/m² | - |
| 1777735208 | 24.44° C | 33% | 1017.3 hPa | 0 mm | - | 148 W/m² | - |
| 1777734130 | 24.44° C | 32% | 1017.5 hPa | 0 mm | - | 127 W/m² | - |
| 1777733410 | 24.44° C | 32% | 1017.7 hPa | 0 mm | - | 154 W/m² | - |
| 1777731970 | 24.44° C | 33% | 1018.1 hPa | 0 mm | - | 217 W/m² | - |
| 1777730889 | 24.44° C | 34% | 1018.3 hPa | 0 mm | - | 199 W/m² | - |
| 1777730532 | 24.44° C | 33% | 1018.4 hPa | 0 mm | - | 301 W/m² | - |
| 1777727649 | 24.44° C | 34% | 1019 hPa | 0 mm | - | 685 W/m² | - |
| 1777727289 | 23.89° C | 30% | 1019.1 hPa | 0 mm | - | 705 W/m² | - |
| 1777725853 | 23.89° C | 33% | 1019.4 hPa | 0 mm | - | 734 W/m² | - |
| 1777725489 | 23.89° C | 32% | 1019.4 hPa | 0 mm | - | 770 W/m² | - |
| 1777725133 | 23.89° C | 32% | 1019.6 hPa | 0 mm | - | 747 W/m² | - |
* Rain latest hour (hover to see other rain measurements)
** Current wind speed in m/s (hover to see current wind gust speed)